Time;durP1;ratioP1;P1;durP2;ratioP2;P2;SDS_P1;SDS_P2;PMS_P1;PMS_P2;Temp;Humidity;BMP_temperature;BMP_pressure;BME280_temperature;BME280_humidity;BME280_pressure;Samples;Min_cycle;Max_cycle;Signal;HPM_P1;HPM_P2
2021/12/27 00:00:13;;;;;;;18.50;12.25;;;4.00;99.90;;;;;;5013473;28;20030;-65
2021/12/27 00:02:40;;;;;;;21.98;13.95;;;3.90;99.90;;;;;;5014904;28;20375;-65
2021/12/27 00:05:06;;;;;;;20.23;12.85;;;3.90;99.90;;;;;;5013874;28;20038;-70
2021/12/27 00:07:32;;;;;;;20.45;13.43;;;3.90;99.90;;;;;;5014430;28;20053;-65
2021/12/27 00:10:00;;;;;;;20.85;12.27;;;4.00;99.90;;;;;;5012756;28;20030;-65
2021/12/27 00:12:25;;;;;;;21.13;13.32;;;3.90;99.90;;;;;;5013095;28;20030;-65
2021/12/27 00:14:51;;;;;;;20.45;13.32;;;4.00;99.90;;;;;;5013723;28;20056;-65
2021/12/27 00:17:17;;;;;;;19.63;12.32;;;4.00;99.90;;;;;;5012705;28;20464;-65
2021/12/27 00:19:42;;;;;;;21.35;13.75;;;4.00;99.90;;;;;;5029450;28;20032;-65
2021/12/27 00:22:08;;;;;;;20.15;12.38;;;4.00;99.90;;;;;;5010122;28;20030;-64
2021/12/27 00:24:34;;;;;;;21.13;13.85;;;4.00;99.90;;;;;;5012973;28;20468;-64
2021/12/27 00:26:59;;;;;;;20.00;12.43;;;4.00;99.90;;;;;;5012856;28;20050;-66
2021/12/27 00:29:25;;;;;;;20.42;13.93;;;4.00;99.90;;;;;;5039111;28;20054;-64
2021/12/27 00:31:51;;;;;;;19.00;13.43;;;4.00;99.90;;;;;;5011167;28;20057;-64
2021/12/27 00:34:16;;;;;;;20.25;13.70;;;4.00;99.90;;;;;;5007797;28;20030;-65
2021/12/27 00:36:42;;;;;;;19.23;13.32;;;4.00;99.90;;;;;;5009312;28;20526;-65
2021/12/27 00:39:08;;;;;;;19.15;12.82;;;4.00;99.90;;;;;;4993167;28;20045;-64
2021/12/27 00:41:33;;;;;;;20.73;12.63;;;4.10;99.90;;;;;;4993953;28;20054;-65
2021/12/27 00:43:59;;;;;;;18.55;12.27;;;4.10;99.90;;;;;;4993660;28;20087;-64
2021/12/27 00:46:25;;;;;;;19.25;13.15;;;4.20;99.90;;;;;;4994254;28;20030;-65
2021/12/27 00:48:50;;;;;;;20.33;13.32;;;4.20;99.90;;;;;;4992049;28;20511;-65
2021/12/27 00:51:16;;;;;;;17.98;11.93;;;4.20;99.90;;;;;;4992478;28;20026;-65
2021/12/27 00:53:42;;;;;;;18.27;12.45;;;4.20;99.90;;;;;;4993486;28;20034;-65
2021/12/27 00:56:08;;;;;;;17.05;11.45;;;4.30;99.90;;;;;;4991979;28;20022;-64
2021/12/27 00:58:34;;;;;;;18.25;12.10;;;4.30;99.90;;;;;;4993250;28;20037;-64
2021/12/27 01:01:00;;;;;;;19.83;13.68;;;4.30;99.90;;;;;;4992814;28;20060;-64
2021/12/27 01:03:26;;;;;;;19.67;12.15;;;4.30;99.90;;;;;;4993326;28;20114;-64
2021/12/27 01:05:51;;;;;;;18.95;12.20;;;4.30;99.90;;;;;;4992627;28;20045;-64
2021/12/27 01:08:17;;;;;;;18.65;11.73;;;4.30;99.90;;;;;;4993122;28;20038;-64
2021/12/27 01:18:32;;;;;;;17.23;11.93;;;4.40;99.90;;;;;;4991683;28;20034;-65
2021/12/27 01:20:58;;;;;;;19.02;12.13;;;4.40;99.90;;;;;;5007070;28;20053;-64
2021/12/27 01:23:24;;;;;;;18.83;12.10;;;4.40;99.90;;;;;;5012296;28;20030;-64
2021/12/27 01:25:50;;;;;;;17.75;11.90;;;4.40;99.90;;;;;;5011643;28;20022;-65
2021/12/27 01:28:16;;;;;;;16.92;11.05;;;4.40;99.90;;;;;;5012768;28;20395;-64
2021/12/27 01:30:47;;;;;;;19.95;12.63;;;4.40;99.90;;;;;;4975561;28;1087272;-65
2021/12/27 01:33:14;;;;;;;18.10;11.60;;;4.40;99.90;;;;;;5013085;28;20057;-65
2021/12/27 01:35:40;;;;;;;17.45;10.88;;;4.40;99.90;;;;;;5013208;28;20033;-64
2021/12/27 01:38:06;;;;;;;17.98;11.88;;;4.40;99.90;;;;;;5011205;28;20034;-64
2021/12/27 01:40:32;;;;;;;15.50;10.55;;;4.50;99.90;;;;;;5012657;28;20526;-67
2021/12/27 01:43:09;;;;;;;17.20;11.07;;;4.50;99.90;;;;;;5012494;28;20046;-66
2021/12/27 01:45:47;;;;;;;18.15;12.27;;;4.50;99.90;;;;;;5011993;28;20025;-65
2021/12/27 01:48:16;;;;;;;17.60;11.07;;;4.40;99.90;;;;;;5012471;28;20048;-65
2021/12/27 01:50:44;;;;;;;18.35;11.90;;;4.40;99.90;;;;;;5013193;28;20026;-65
2021/12/27 01:53:11;;;;;;;16.80;11.45;;;4.50;99.90;;;;;;5012047;28;20476;-65
2021/12/27 01:55:37;;;;;;;15.35;10.93;;;4.50;99.90;;;;;;5012620;28;20044;-65
2021/12/27 01:58:03;;;;;;;16.35;11.40;;;4.50;99.90;;;;;;5011946;28;20033;-65
2021/12/27 02:00:29;;;;;;;20.15;12.02;;;4.50;99.90;;;;;;5012828;28;20109;-65
2021/12/27 02:02:55;;;;;;;17.30;11.98;;;4.50;99.90;;;;;;5012270;28;20605;-65
2021/12/27 02:05:20;;;;;;;20.05;12.13;;;4.50;99.90;;;;;;5011638;28;20053;-65
2021/12/27 02:07:46;;;;;;;17.92;11.48;;;4.50;99.90;;;;;;5011644;28;20022;-65
2021/12/27 02:10:13;;;;;;;18.02;11.35;;;4.50;99.90;;;;;;5010905;28;20037;-64
2021/12/27 02:12:44;;;;;;;17.40;10.52;;;4.50;99.90;;;;;;5012755;28;20032;-64
2021/12/27 02:15:10;;;;;;;20.88;12.18;;;4.50;99.90;;;;;;5011864;28;20034;-66
2021/12/27 02:17:38;;;;;;;18.58;12.55;;;4.40;99.90;;;;;;5012587;28;20026;-64
2021/12/27 02:20:06;;;;;;;18.58;11.32;;;4.40;99.90;;;;;;5010816;28;20041;-65
2021/12/27 02:22:36;;;;;;;18.65;12.48;;;4.50;99.90;;;;;;5012561;28;20109;-66
2021/12/27 02:25:04;;;;;;;18.98;12.13;;;4.50;99.90;;;;;;5012400;28;20104;-65
2021/12/27 02:27:30;;;;;;;15.95;11.02;;;4.50;99.90;;;;;;5013927;28;20018;-66
2021/12/27 02:29:55;;;;;;;18.38;11.65;;;4.50;99.90;;;;;;5013229;28;20546;-66
2021/12/27 02:32:21;;;;;;;17.40;11.90;;;4.40;99.90;;;;;;5013335;28;20066;-67
2021/12/27 02:34:46;;;;;;;16.30;11.20;;;4.40;99.90;;;;;;5012302;28;20529;-64
2021/12/27 02:37:12;;;;;;;16.15;10.45;;;4.40;99.90;;;;;;5010600;28;20563;-64
2021/12/27 02:39:38;;;;;;;18.95;11.82;;;4.40;99.90;;;;;;5011075;28;20034;-67
2021/12/27 02:42:04;;;;;;;18.45;11.07;;;4.40;99.90;;;;;;5011957;28;20034;-64
2021/12/27 02:44:30;;;;;;;18.40;11.73;;;4.50;99.90;;;;;;5011232;28;20034;-64
2021/12/27 02:46:56;;;;;;;17.80;11.35;;;4.50;99.90;;;;;;5012011;28;20045;-64
2021/12/27 02:49:21;;;;;;;17.15;10.75;;;4.50;99.90;;;;;;5012071;28;20374;-65
2021/12/27 02:51:47;;;;;;;17.80;10.30;;;4.50;99.90;;;;;;5012284;28;20038;-64
2021/12/27 02:54:12;;;;;;;20.17;11.43;;;4.50;99.90;;;;;;5011787;28;20026;-64
2021/12/27 02:56:38;;;;;;;17.58;11.20;;;4.50;99.90;;;;;;5012090;28;20036;-65
2021/12/27 02:59:04;;;;;;;18.45;11.57;;;4.50;99.90;;;;;;5010446;28;20502;-65
2021/12/27 03:01:30;;;;;;;17.05;11.38;;;4.50;99.90;;;;;;5011194;28;20038;-64
2021/12/27 03:03:56;;;;;;;17.77;12.05;;;4.60;99.90;;;;;;5012031;28;20057;-65
2021/12/27 03:06:21;;;;;;;20.27;11.93;;;4.60;99.90;;;;;;5012796;28;20030;-67
2021/12/27 03:08:49;;;;;;;17.38;11.75;;;4.60;99.90;;;;;;5011569;28;20069;-74
2021/12/27 03:11:15;;;;;;;16.40;10.93;;;4.60;99.90;;;;;;5011069;28;20304;-65
2021/12/27 03:13:46;;;;;;;21.15;13.50;;;4.60;99.90;;;;;;5012159;28;20470;-65
2021/12/27 03:16:15;;;;;;;17.80;12.23;;;4.70;99.90;;;;;;5010290;28;20022;-65
2021/12/27 03:18:48;;;;;;;18.58;12.00;;;4.60;99.90;;;;;;4995098;28;20379;-65
2021/12/27 03:21:14;;;;;;;19.88;11.98;;;4.60;99.90;;;;;;5014092;28;20064;-65
2021/12/27 03:23:43;;;;;;;21.95;12.07;;;4.50;99.90;;;;;;5014670;28;20051;-64
2021/12/27 03:26:09;;;;;;;18.55;11.48;;;4.50;99.90;;;;;;5015447;28;20484;-71
2021/12/27 03:28:36;;;;;;;16.90;10.82;;;4.60;99.90;;;;;;5016000;28;20030;-66
2021/12/27 03:31:02;;;;;;;19.13;12.20;;;4.60;99.90;;;;;;5014753;28;20460;-64
2021/12/27 03:33:30;;;;;;;22.20;11.38;;;4.60;99.90;;;;;;5014284;28;20030;-65
2021/12/27 03:36:05;;;;;;;20.23;13.15;;;4.60;99.90;;;;;;5015304;28;20079;-66
2021/12/27 03:38:45;;;;;;;17.85;11.88;;;4.60;99.90;;;;;;5015360;28;20113;-65
2021/12/27 03:41:17;;;;;;;20.27;12.55;;;4.70;99.90;;;;;;5014711;28;20038;-65
2021/12/27 03:43:43;;;;;;;19.27;12.05;;;4.70;99.90;;;;;;5014296;28;20029;-65
2021/12/27 03:46:09;;;;;;;17.85;12.23;;;4.70;99.90;;;;;;5013510;28;20110;-65
2021/12/27 03:48:35;;;;;;;22.45;12.82;;;4.70;99.90;;;;;;5015155;28;20087;-66
2021/12/27 03:51:02;;;;;;;19.73;12.98;;;4.70;99.90;;;;;;5014705;28;20101;-65
2021/12/27 03:53:29;;;;;;;23.33;13.65;;;4.80;99.90;;;;;;5015197;28;20022;-64
2021/12/27 03:55:55;;;;;;;26.45;13.48;;;4.80;99.90;;;;;;5015056;28;20379;-66
2021/12/27 03:58:31;;;;;;;23.00;13.05;;;4.80;99.90;;;;;;5014459;28;20040;-64
2021/12/27 04:01:12;;;;;;;25.38;14.07;;;4.70;99.90;;;;;;5013952;28;20488;-65
2021/12/27 04:03:38;;;;;;;23.38;13.60;;;4.60;99.90;;;;;;5014853;28;20054;-65
2021/12/27 04:06:04;;;;;;;36.47;14.82;;;4.50;99.90;;;;;;5013022;28;20081;-64
2021/12/27 04:08:29;;;;;;;41.55;14.25;;;4.40;99.90;;;;;;5014509;28;20033;-64
2021/12/27 04:10:55;;;;;;;24.48;14.35;;;4.30;99.90;;;;;;5014191;28;20040;-65
2021/12/27 04:13:22;;;;;;;30.15;14.82;;;4.40;99.90;;;;;;5012875;28;20365;-66
2021/12/27 04:15:49;;;;;;;26.40;14.68;;;4.40;99.90;;;;;;5013623;28;20415;-65
2021/12/27 04:18:16;;;;;;;27.15;13.90;;;4.60;99.90;;;;;;5014291;28;20034;-66
2021/12/27 04:20:42;;;;;;;26.75;13.45;;;4.60;99.90;;;;;;5015530;28;20029;-66
2021/12/27 04:23:08;;;;;;;22.95;13.00;;;4.60;99.90;;;;;;5014074;28;20029;-66
2021/12/27 04:25:34;;;;;;;24.33;13.23;;;4.50;99.90;;;;;;5013063;28;20483;-65
2021/12/27 04:28:00;;;;;;;29.98;12.98;;;4.70;99.90;;;;;;5013607;28;20434;-70
2021/12/27 04:30:26;;;;;;;24.85;13.60;;;4.60;99.90;;;;;;5013984;28;20054;-66
2021/12/27 04:32:51;;;;;;;29.45;14.68;;;4.70;99.90;;;;;;5012931;28;20029;-65
2021/12/27 04:35:21;;;;;;;28.17;14.38;;;4.50;99.90;;;;;;5012082;28;20173;-65
2021/12/27 04:37:48;;;;;;;37.47;15.13;;;4.50;99.90;;;;;;5012780;28;20026;-65
2021/12/27 04:40:15;;;;;;;34.47;16.05;;;4.50;99.90;;;;;;5012295;28;20030;-66
2021/12/27 04:42:44;;;;;;;29.27;14.35;;;4.40;99.90;;;;;;5014509;28;20116;-66
2021/12/27 04:45:11;;;;;;;29.50;13.88;;;4.50;99.90;;;;;;5014286;28;20034;-66
2021/12/27 04:47:41;;;;;;;29.85;13.05;;;4.60;99.90;;;;;;5014884;28;20036;-67
2021/12/27 04:50:07;;;;;;;34.83;13.35;;;4.50;99.90;;;;;;5013464;28;20037;-66
2021/12/27 04:52:33;;;;;;;26.40;13.63;;;4.60;99.90;;;;;;5012822;28;20105;-66
2021/12/27 04:54:59;;;;;;;24.98;13.73;;;4.60;99.90;;;;;;5013018;28;20053;-66
2021/12/27 04:57:24;;;;;;;30.10;13.13;;;4.50;99.90;;;;;;5013939;28;20034;-65
2021/12/27 04:59:50;;;;;;;36.17;14.68;;;4.60;99.90;;;;;;5012989;28;20033;-65
2021/12/27 05:02:16;;;;;;;28.58;13.98;;;4.70;99.90;;;;;;5012024;28;20034;-65
2021/12/27 05:04:41;;;;;;;36.08;13.93;;;4.50;99.90;;;;;;5012777;28;20120;-66
2021/12/27 05:07:07;;;;;;;26.88;13.93;;;4.50;99.90;;;;;;5013624;28;20038;-65
2021/12/27 05:09:33;;;;;;;34.38;14.77;;;4.50;99.90;;;;;;5013955;28;20037;-66
2021/12/27 05:11:59;;;;;;;34.58;15.13;;;4.40;99.90;;;;;;5014339;28;20486;-66
2021/12/27 05:14:24;;;;;;;24.52;12.50;;;4.40;99.90;;;;;;5012610;28;20099;-65
2021/12/27 05:16:50;;;;;;;27.38;14.32;;;4.40;99.90;;;;;;5012651;28;20102;-65
2021/12/27 05:19:15;;;;;;;28.90;14.07;;;4.50;99.90;;;;;;5013056;28;20032;-64
2021/12/27 05:21:41;;;;;;;36.85;15.82;;;4.60;99.90;;;;;;5013773;28;20030;-64
2021/12/27 05:24:07;;;;;;;24.02;13.35;;;4.60;99.90;;;;;;5011425;28;20037;-64
2021/12/27 05:26:33;;;;;;;31.88;12.77;;;4.60;99.90;;;;;;5013040;28;20030;-64
2021/12/27 05:28:58;;;;;;;38.70;13.50;;;4.60;99.90;;;;;;5011600;28;20053;-64
2021/12/27 05:31:24;;;;;;;28.55;14.85;;;4.40;99.90;;;;;;5012947;28;20467;-64
2021/12/27 05:33:50;;;;;;;35.75;13.88;;;4.50;99.90;;;;;;5013393;28;20026;-65
2021/12/27 05:36:16;;;;;;;32.92;14.43;;;4.60;99.90;;;;;;5012260;28;20522;-63
2021/12/27 05:38:41;;;;;;;33.60;13.35;;;4.60;99.90;;;;;;5011947;28;20034;-64
2021/12/27 05:41:07;;;;;;;32.00;13.93;;;4.60;99.90;;;;;;5012309;28;20404;-66
2021/12/27 05:43:33;;;;;;;28.38;13.80;;;4.70;99.90;;;;;;5012657;28;20527;-64
2021/12/27 05:46:02;;;;;;;32.45;12.95;;;4.70;99.90;;;;;;5011781;28;20361;-63
2021/12/27 05:48:27;;;;;;;27.08;13.35;;;4.70;99.90;;;;;;5012372;28;20053;-65
2021/12/27 05:50:53;;;;;;;30.02;12.43;;;4.80;99.90;;;;;;5011657;28;20097;-64
2021/12/27 05:53:20;;;;;;;23.40;12.07;;;4.80;99.90;;;;;;5012344;28;20033;-64
2021/12/27 05:55:46;;;;;;;22.92;13.68;;;4.80;99.90;;;;;;5012694;28;20033;-65
2021/12/27 05:58:11;;;;;;;23.60;13.80;;;4.80;99.90;;;;;;5012253;28;20460;-65
2021/12/27 06:00:38;;;;;;;20.52;13.15;;;4.70;99.90;;;;;;5012921;28;20128;-66
2021/12/27 06:03:03;;;;;;;18.67;11.48;;;4.80;99.90;;;;;;5011494;28;20030;-65
2021/12/27 06:05:29;;;;;;;20.25;10.38;;;4.80;99.90;;;;;;5012278;28;20037;-65
2021/12/27 06:07:55;;;;;;;23.80;11.52;;;4.80;99.90;;;;;;5012708;28;20028;-65
2021/12/27 06:10:20;;;;;;;15.10;9.38;;;4.90;99.90;;;;;;5010924;28;20048;-66
2021/12/27 06:12:47;;;;;;;17.60;10.20;;;4.90;99.90;;;;;;5013128;28;20087;-66
2021/12/27 06:15:13;;;;;;;15.52;9.63;;;5.10;99.90;;;;;;5012167;28;20038;-65
2021/12/27 06:17:42;;;;;;;19.20;9.68;;;5.10;99.90;;;;;;5012553;28;20030;-64
2021/12/27 06:20:10;;;;;;;16.73;9.60;;;5.10;99.90;;;;;;5012084;28;20482;-65
2021/12/27 06:22:38;;;;;;;20.80;11.35;;;5.10;99.90;;;;;;5012568;28;20030;-65
2021/12/27 06:25:04;;;;;;;18.90;10.80;;;5.10;99.90;;;;;;5011816;28;20081;-64
2021/12/27 06:27:34;;;;;;;17.20;10.40;;;5.10;99.90;;;;;;5010564;28;20026;-66
2021/12/27 06:30:01;;;;;;;17.50;10.80;;;5.10;99.90;;;;;;5012680;28;20046;-65
2021/12/27 06:32:27;;;;;;;18.52;10.57;;;5.20;99.90;;;;;;5011841;28;20704;-64
2021/12/27 06:34:52;;;;;;;21.40;11.10;;;5.10;99.90;;;;;;5011229;28;20117;-65
2021/12/27 06:37:19;;;;;;;19.08;10.68;;;5.10;99.90;;;;;;5011094;28;20479;-72
2021/12/27 06:39:45;;;;;;;16.83;10.93;;;5.10;99.90;;;;;;5013412;28;20026;-66
2021/12/27 06:42:11;;;;;;;19.52;10.32;;;5.10;99.90;;;;;;5011554;28;20120;-65
2021/12/27 06:44:37;;;;;;;16.98;10.60;;;5.10;99.90;;;;;;5011954;28;20061;-65
2021/12/27 06:47:03;;;;;;;16.73;10.20;;;5.10;99.90;;;;;;5013222;28;20030;-65
2021/12/27 06:49:33;;;;;;;15.80;9.65;;;5.10;99.90;;;;;;5012299;28;20039;-67
2021/12/27 06:51:59;;;;;;;17.23;10.63;;;5.10;99.90;;;;;;5012601;28;20538;-65
2021/12/27 06:54:24;;;;;;;19.10;10.40;;;5.10;99.90;;;;;;5012972;28;20149;-65
2021/12/27 06:56:50;;;;;;;17.63;10.35;;;5.10;99.90;;;;;;5016389;28;20049;-64
2021/12/27 06:59:17;;;;;;;17.08;11.18;;;5.20;99.90;;;;;;5014191;28;20099;-64
2021/12/27 07:01:43;;;;;;;16.77;10.63;;;5.20;99.90;;;;;;5014515;28;20034;-64
2021/12/27 07:04:08;;;;;;;19.52;10.90;;;5.20;99.90;;;;;;5015698;28;20062;-65
2021/12/27 07:06:34;;;;;;;18.67;11.93;;;5.20;99.90;;;;;;5015720;28;20060;-69
2021/12/27 07:09:00;;;;;;;17.98;11.00;;;5.20;99.90;;;;;;5015600;28;20049;-64
2021/12/27 07:11:25;;;;;;;19.02;11.40;;;5.30;99.90;;;;;;5015375;28;20018;-65
2021/12/27 07:13:51;;;;;;;17.60;11.10;;;5.20;99.90;;;;;;5016177;28;20121;-65
2021/12/27 07:16:17;;;;;;;19.05;10.75;;;5.20;99.90;;;;;;5013957;28;20057;-65
2021/12/27 07:18:42;;;;;;;16.10;10.55;;;5.10;99.90;;;;;;5014222;28;20026;-64
2021/12/27 07:21:08;;;;;;;17.13;9.98;;;5.10;99.90;;;;;;5015565;28;20148;-65
2021/12/27 07:23:33;;;;;;;21.45;10.70;;;5.30;99.90;;;;;;5015102;28;20084;-67
2021/12/27 07:25:59;;;;;;;15.68;10.52;;;5.20;99.90;;;;;;5015739;28;20029;-64
2021/12/27 07:28:25;;;;;;;14.10;8.90;;;5.20;99.90;;;;;;5015107;28;20072;-67
2021/12/27 07:30:51;;;;;;;17.30;10.02;;;5.10;99.90;;;;;;5016169;28;20184;-65
2021/12/27 07:33:16;;;;;;;15.50;10.57;;;5.10;99.90;;;;;;5014830;28;20037;-65
2021/12/27 07:35:42;;;;;;;17.35;11.20;;;5.10;99.90;;;;;;5015832;28;20399;-68
2021/12/27 07:38:08;;;;;;;14.07;10.00;;;5.20;99.90;;;;;;5014696;28;20093;-66
2021/12/27 07:40:34;;;;;;;16.17;10.27;;;5.30;99.90;;;;;;5016547;28;20040;-61
2021/12/27 07:43:00;;;;;;;14.85;10.52;;;5.20;99.90;;;;;;5014166;28;20029;-66
2021/12/27 07:45:26;;;;;;;14.23;10.88;;;5.30;99.90;;;;;;5014255;28;20427;-67
2021/12/27 07:47:52;;;;;;;14.02;9.73;;;5.40;99.90;;;;;;5014964;28;20068;-66
2021/12/27 07:50:19;;;;;;;15.43;10.00;;;5.40;99.90;;;;;;5014569;28;20092;-66
2021/12/27 07:52:44;;;;;;;14.80;10.05;;;5.40;99.90;;;;;;5015006;28;20026;-66
2021/12/27 07:55:10;;;;;;;14.60;9.70;;;5.30;99.90;;;;;;5015403;28;20036;-66
2021/12/27 07:57:36;;;;;;;14.30;9.73;;;5.30;99.90;;;;;;5013317;28;20029;-65
2021/12/27 08:00:05;;;;;;;17.63;10.45;;;5.40;99.90;;;;;;5014947;28;20034;-67
2021/12/27 08:02:30;;;;;;;17.83;10.13;;;5.40;99.90;;;;;;5014304;28;20034;-69
2021/12/27 08:04:56;;;;;;;13.77;10.18;;;5.50;99.90;;;;;;5015084;28;20388;-68
2021/12/27 08:07:22;;;;;;;17.52;10.57;;;5.40;99.90;;;;;;5013474;28;20467;-65
2021/12/27 08:09:47;;;;;;;19.85;10.30;;;5.50;99.90;;;;;;5014307;28;20041;-66
2021/12/27 08:12:14;;;;;;;14.68;9.75;;;5.50;99.90;;;;;;5014787;28;20026;-67
2021/12/27 08:14:40;;;;;;;14.75;10.32;;;5.60;99.90;;;;;;5013778;28;20133;-66
2021/12/27 08:17:06;;;;;;;18.63;10.40;;;5.60;99.90;;;;;;5014556;28;20065;-66
2021/12/27 08:19:33;;;;;;;18.20;10.65;;;5.70;99.90;;;;;;5014053;28;20120;-65
2021/12/27 08:21:59;;;;;;;18.30;11.75;;;5.70;99.90;;;;;;5013456;28;20357;-67
2021/12/27 08:24:24;;;;;;;17.35;9.95;;;5.70;99.90;;;;;;5013628;28;20080;-65
2021/12/27 08:26:50;;;;;;;16.60;9.85;;;5.80;99.90;;;;;;5014165;28;20026;-65
2021/12/27 08:29:16;;;;;;;20.13;9.90;;;5.90;99.90;;;;;;5013823;28;20522;-67
2021/12/27 08:31:42;;;;;;;16.67;10.80;;;6.00;99.90;;;;;;5014639;28;20041;-67
2021/12/27 08:34:08;;;;;;;16.92;9.30;;;6.00;99.90;;;;;;5014168;28;20025;-68
2021/12/27 08:36:34;;;;;;;14.13;9.80;;;6.00;99.90;;;;;;5013581;28;20906;-65
2021/12/27 08:38:59;;;;;;;15.57;10.27;;;5.70;99.90;;;;;;5014061;28;20030;-65
2021/12/27 08:41:27;;;;;;;11.55;8.88;;;5.60;99.90;;;;;;5013701;28;20049;-68
2021/12/27 08:44:05;;;;;;;14.05;9.50;;;5.60;99.90;;;;;;5013891;28;20464;-67
2021/12/27 08:46:32;;;;;;;15.50;10.10;;;5.50;99.90;;;;;;5013408;28;20128;-66
2021/12/27 08:48:58;;;;;;;16.50;9.73;;;5.50;99.90;;;;;;5013795;28;20033;-65
2021/12/27 08:51:23;;;;;;;15.48;9.43;;;5.60;99.90;;;;;;5011873;28;20076;-67
2021/12/27 08:53:49;;;;;;;17.25;11.60;;;5.60;99.90;;;;;;5014258;28;20046;-65
2021/12/27 08:56:18;;;;;;;14.52;10.05;;;5.50;99.90;;;;;;5013965;28;20025;-67
2021/12/27 08:58:43;;;;;;;18.80;10.13;;;5.60;99.90;;;;;;5013777;28;20030;-67
2021/12/27 09:01:09;;;;;;;14.15;10.27;;;5.70;99.90;;;;;;5012491;28;20089;-66
2021/12/27 09:03:35;;;;;;;14.98;9.20;;;5.80;99.90;;;;;;5011915;28;20029;-67
2021/12/27 09:06:01;;;;;;;15.27;10.55;;;5.80;99.90;;;;;;5013903;28;20026;-66
2021/12/27 09:08:26;;;;;;;16.20;10.20;;;5.90;99.90;;;;;;5012956;28;20029;-67
2021/12/27 09:10:57;;;;;;;14.45;9.90;;;5.90;99.90;;;;;;5013872;28;20491;-65
2021/12/27 09:13:27;;;;;;;14.02;9.82;;;6.00;99.90;;;;;;5012794;28;20061;-65
2021/12/27 09:15:53;;;;;;;14.23;9.68;;;6.00;99.90;;;;;;5013436;28;20062;-66
2021/12/27 09:18:18;;;;;;;14.55;9.75;;;6.00;99.90;;;;;;5012354;28;20026;-68
2021/12/27 09:20:44;;;;;;;16.00;9.43;;;6.00;99.90;;;;;;5012136;28;20400;-66
2021/12/27 09:23:10;;;;;;;12.90;9.05;;;6.10;99.90;;;;;;5013126;28;20383;-66
2021/12/27 09:25:35;;;;;;;13.55;9.88;;;6.10;99.90;;;;;;5012543;28;20034;-69
2021/12/27 09:28:01;;;;;;;15.52;10.45;;;6.10;99.90;;;;;;5013346;28;20049;-66
2021/12/27 09:30:27;;;;;;;14.48;9.70;;;6.00;99.90;;;;;;5011279;28;20431;-66
2021/12/27 09:32:53;;;;;;;19.38;9.70;;;6.10;99.90;;;;;;5013162;28;20071;-66
2021/12/27 09:35:19;;;;;;;50.90;32.63;;;6.10;99.90;;;;;;5012541;28;20026;-67
2021/12/27 09:37:45;;;;;;;25.30;14.60;;;6.20;99.90;;;;;;5013193;28;20052;-69
2021/12/27 09:40:12;;;;;;;15.15;9.98;;;6.50;99.90;;;;;;5013258;28;20518;-68
2021/12/27 09:42:44;;;;;;;13.40;9.15;;;6.40;99.90;;;;;;5010264;28;20041;-67
2021/12/27 09:45:09;;;;;;;13.10;9.63;;;6.30;99.90;;;;;;5014251;28;20117;-65
2021/12/27 09:47:36;;;;;;;17.58;10.13;;;6.30;99.90;;;;;;5014240;28;20087;-67
2021/12/27 09:50:09;;;;;;;13.40;9.73;;;6.20;99.90;;;;;;5006164;28;20037;-67
2021/12/27 09:52:34;;;;;;;16.58;10.32;;;5.80;99.90;;;;;;5009000;28;20173;-67
2021/12/27 09:55:04;;;;;;;15.32;9.77;;;5.80;99.90;;;;;;5009954;28;20192;-67
2021/12/27 09:57:31;;;;;;;15.23;10.20;;;5.80;99.90;;;;;;5009677;28;20030;-65
2021/12/27 09:59:57;;;;;;;16.88;10.73;;;6.00;99.90;;;;;;5013593;28;20034;-68
2021/12/27 10:02:24;;;;;;;17.20;10.50;;;6.10;99.90;;;;;;5011586;28;20384;-64
2021/12/27 10:04:50;;;;;;;16.30;9.75;;;6.30;99.90;;;;;;5020567;28;20480;-68
2021/12/27 10:07:27;;;;;;;13.98;9.88;;;6.30;99.90;;;;;;5008514;28;20080;-68
2021/12/27 10:09:59;;;;;;;16.92;10.13;;;6.20;99.90;;;;;;5013027;28;20040;-67
2021/12/27 10:12:28;;;;;;;17.75;10.65;;;6.30;99.90;;;;;;5010232;28;20036;-67
2021/12/27 10:15:03;;;;;;;14.48;10.13;;;6.30;99.90;;;;;;5008727;28;20387;-67
2021/12/27 10:17:35;;;;;;;17.83;10.90;;;6.40;99.90;;;;;;5010977;28;20042;-69
2021/12/27 10:20:11;;;;;;;13.65;10.02;;;6.40;99.90;;;;;;5010941;28;20471;-68
2021/12/27 10:22:39;;;;;;;14.10;10.45;;;6.30;99.90;;;;;;5003795;28;20045;-67
2021/12/27 10:25:23;;;;;;;17.58;11.45;;;6.40;99.90;;;;;;5011066;28;20124;-67
2021/12/27 10:27:53;;;;;;;19.27;11.80;;;6.30;99.90;;;;;;5009886;28;20065;-66
2021/12/27 10:30:21;;;;;;;15.20;10.23;;;6.30;99.90;;;;;;5015712;28;20062;-63
2021/12/27 10:33:08;;;;;;;14.50;9.82;;;6.30;99.90;;;;;;5016315;28;20050;-65
2021/12/27 10:35:36;;;;;;;11.77;8.30;;;7.80;99.90;;;;;;5013953;28;20029;-64
2021/12/27 10:38:40;;;;;;;15.65;9.90;;;8.00;99.90;;;;;;5014587;28;20029;-62
2021/12/27 10:41:10;;;;;;;14.02;9.52;;;9.00;99.90;;;;;;5015066;28;20388;-66
2021/12/27 10:43:50;;;;;;;16.48;10.75;;;8.60;99.90;;;;;;5015526;28;20037;-66
2021/12/27 10:46:20;;;;;;;15.20;11.05;;;7.80;99.90;;;;;;5016254;28;20022;-72
2021/12/27 10:49:00;;;;;;;13.30;9.93;;;7.40;99.90;;;;;;5015985;28;20069;-69
2021/12/27 10:51:29;;;;;;;15.30;9.52;;;7.10;99.90;;;;;;5017308;28;20034;-66
2021/12/27 10:54:00;;;;;;;12.65;9.90;;;6.90;99.90;;;;;;5017834;28;20089;-61
2021/12/27 10:56:47;;;;;;;15.85;9.85;;;7.00;99.90;;;;;;5022737;28;20026;-67
2021/12/27 10:59:17;;;;;;;15.80;10.20;;;7.10;99.90;;;;;;5014663;28;20030;-67
2021/12/27 11:01:47;;;;;;;12.80;9.25;;;7.00;99.90;;;;;;5013670;28;20469;-68
2021/12/27 11:04:16;;;;;;;13.38;9.90;;;7.00;99.90;;;;;;5014760;28;20018;-69
2021/12/27 11:06:42;;;;;;;15.68;10.35;;;7.00;99.90;;;;;;5014575;28;20026;-73
2021/12/27 11:09:09;;;;;;;13.80;10.00;;;6.90;99.90;;;;;;5010074;28;20038;-70
2021/12/27 11:11:35;;;;;;;14.38;9.70;;;6.90;99.90;;;;;;5012774;28;20030;-66
2021/12/27 11:14:04;;;;;;;13.85;9.50;;;6.90;99.90;;;;;;5014476;28;20036;-69
2021/12/27 11:16:29;;;;;;;15.15;10.65;;;7.10;99.90;;;;;;5013396;28;20038;-68
2021/12/27 11:18:56;;;;;;;14.77;10.55;;;7.10;99.90;;;;;;5015405;28;20022;-67
2021/12/27 11:21:33;;;;;;;14.48;9.65;;;7.10;99.90;;;;;;5009135;28;20498;-71
2021/12/27 11:24:01;;;;;;;14.45;10.48;;;7.20;99.90;;;;;;5017264;28;20025;-69
2021/12/27 11:26:32;;;;;;;14.43;10.05;;;7.00;99.90;;;;;;5014211;28;20503;-67
2021/12/27 11:29:11;;;;;;;;;;;7.00;99.90;;;;;;5015999;28;20042;-67
2021/12/27 11:31:38;;;;;;;16.50;10.63;;;7.00;99.90;;;;;;5006808;28;19956;-68
2021/12/27 11:34:12;;;;;;;15.07;10.68;;;7.10;99.90;;;;;;5012993;28;20411;-68
2021/12/27 11:36:44;;;;;;;15.43;10.73;;;7.20;99.90;;;;;;5009012;28;20030;-68
2021/12/27 11:39:32;;;;;;;12.80;10.25;;;7.10;99.90;;;;;;5014947;28;20034;-68
2021/12/27 11:42:06;;;;;;;18.48;10.32;;;7.20;99.90;;;;;;5014438;28;20060;-68
2021/12/27 11:44:56;;;;;;;14.63;10.43;;;7.20;99.90;;;;;;5012752;28;20026;-69
2021/12/27 11:47:30;;;;;;;16.42;10.82;;;7.40;99.90;;;;;;5015413;28;20026;-69
2021/12/27 11:50:02;;;;;;;15.80;10.57;;;7.40;99.90;;;;;;5012180;28;20038;-70
2021/12/27 11:52:31;;;;;;;16.02;10.90;;;7.40;99.90;;;;;;5011135;28;20470;-69
2021/12/27 11:55:02;;;;;;;21.13;12.10;;;7.50;99.90;;;;;;5015938;28;20185;-67
2021/12/27 11:57:37;;;;;;;18.45;11.77;;;7.50;99.90;;;;;;5013247;28;20069;-67
2021/12/27 12:00:23;;;;;;;18.83;10.98;;;7.50;99.90;;;;;;5013403;28;20029;-68
2021/12/27 12:02:52;;;;;;;19.38;12.20;;;7.50;99.90;;;;;;5011529;28;20065;-68
2021/12/27 12:05:36;;;;;;;16.15;11.15;;;7.40;99.90;;;;;;5014955;28;20368;-67
2021/12/27 12:08:04;;;;;;;18.17;11.88;;;7.40;99.90;;;;;;5006151;28;20125;-66
2021/12/27 12:10:31;;;;;;;17.20;11.52;;;7.50;99.90;;;;;;5014234;28;20464;-68
2021/12/27 12:13:16;;;;;;;18.38;11.95;;;7.40;99.90;;;;;;5014169;28;20076;-67
2021/12/27 12:16:12;;;;;;;15.20;11.63;;;7.50;99.90;;;;;;5014148;28;20029;-67
2021/12/27 12:18:41;;;;;;;16.52;11.43;;;7.60;99.90;;;;;;5007397;28;20352;-66
2021/12/27 12:21:33;;;;;;;17.83;12.55;;;7.70;99.90;;;;;;5011109;28;20029;-68
2021/12/27 12:24:07;;;;;;;16.52;10.73;;;7.90;99.90;;;;;;5013736;28;20034;-70
2021/12/27 12:26:51;;;;;;;21.90;13.48;;;8.00;99.90;;;;;;5012711;28;20038;-68
2021/12/27 12:29:16;;;;;;;19.65;12.15;;;8.00;99.90;;;;;;5037715;28;20081;-66
2021/12/27 12:31:42;;;;;;;15.98;11.77;;;8.10;99.90;;;;;;5012175;28;20045;-69
2021/12/27 12:34:13;;;;;;;17.98;11.27;;;8.00;99.90;;;;;;5013545;28;20037;-69
2021/12/27 12:36:57;;;;;;;15.70;10.85;;;7.90;99.90;;;;;;5011723;28;20088;-71
2021/12/27 12:39:25;;;;;;;14.93;10.10;;;8.00;99.90;;;;;;5013193;28;20133;-67
2021/12/27 12:42:04;;;;;;;15.00;10.32;;;7.80;99.90;;;;;;5014024;28;20034;-67
2021/12/27 12:44:30;;;;;;;13.95;8.38;;;7.80;99.90;;;;;;5013992;28;20026;-66
2021/12/27 12:47:00;;;;;;;13.18;8.10;;;7.90;99.90;;;;;;5011644;28;20030;-67
2021/12/27 12:49:28;;;;;;;12.18;8.05;;;8.10;99.90;;;;;;5012984;28;20029;-67